createdAt,value
2017-10-28T00:00:48.928Z,1017.5
2017-10-28T00:01:50.534Z,1017.5
2017-10-28T00:02:52.139Z,1017.6
2017-10-28T00:03:53.751Z,1017.5
2017-10-28T00:04:55.367Z,1017.6
2017-10-28T00:05:56.974Z,1017.6
2017-10-28T00:06:58.587Z,1017.5
2017-10-28T00:08:00.190Z,1017.4
2017-10-28T00:09:01.801Z,1017.4
2017-10-28T00:10:03.402Z,1017.4
2017-10-28T00:11:05.016Z,1017.4
2017-10-28T00:12:06.617Z,1017.4
2017-10-28T00:13:08.228Z,1017.4
2017-10-28T00:14:09.836Z,1017.4
2017-10-28T00:15:11.443Z,1017.5
2017-10-28T00:16:13.046Z,1017.4
2017-10-28T00:17:14.653Z,1017.4
2017-10-28T00:18:16.254Z,1017.4
2017-10-28T00:19:17.866Z,1017.4
2017-10-28T00:20:19.472Z,1017.4
2017-10-28T00:21:21.084Z,1017.4
2017-10-28T00:22:22.687Z,1017.3
2017-10-28T00:23:24.293Z,1017.3
2017-10-28T00:24:25.902Z,1017.3
2017-10-28T00:25:27.510Z,1017.3
2017-10-28T00:26:29.117Z,1017.4
2017-10-28T00:27:30.726Z,1017.4
2017-10-28T00:28:32.335Z,1017.4
2017-10-28T00:29:33.936Z,1017.4
2017-10-28T00:30:35.547Z,1017.4
2017-10-28T00:31:37.149Z,1017.4
2017-10-28T00:32:38.759Z,1017.4
2017-10-28T00:33:40.368Z,1017.3
2017-10-28T00:34:41.970Z,1017.3
2017-10-28T00:35:43.582Z,1017.3
2017-10-28T00:36:45.192Z,1017.2
2017-10-28T00:37:46.805Z,1017.2
2017-10-28T00:38:48.404Z,1017.1
2017-10-28T00:39:50.015Z,1017.1
2017-10-28T00:40:51.617Z,1017.2
2017-10-28T00:41:53.228Z,1017.2
2017-10-28T00:42:54.839Z,1017.2
2017-10-28T00:43:56.442Z,1017.3
2017-10-28T00:44:58.045Z,1017.2
2017-10-28T00:45:59.648Z,1017.2
2017-10-28T00:47:01.266Z,1017.2
2017-10-28T00:48:02.864Z,1017.1
2017-10-28T00:49:04.479Z,1017.1
2017-10-28T00:50:06.091Z,1017.1
2017-10-28T00:51:07.695Z,1017.1
2017-10-28T00:52:09.298Z,1017.0
2017-10-28T00:53:10.911Z,1017.0
2017-10-28T00:54:12.523Z,1016.9
2017-10-28T00:55:14.125Z,1016.9
2017-10-28T00:56:15.736Z,1016.9
2017-10-28T00:57:17.342Z,1016.9
2017-10-28T00:58:18.951Z,1016.9
2017-10-28T00:59:20.552Z,1016.9
2017-10-28T01:00:22.163Z,1016.9
2017-10-28T01:01:23.785Z,1016.9
2017-10-28T01:02:25.380Z,1016.8
2017-10-28T01:03:26.988Z,1016.8
2017-10-28T01:04:28.590Z,1016.8
2017-10-28T01:05:30.204Z,1016.8
2017-10-28T01:06:31.804Z,1016.8
2017-10-28T01:07:33.414Z,1016.8
2017-10-28T01:08:35.020Z,1016.8
2017-10-28T01:09:36.628Z,1016.8
2017-10-28T01:10:38.234Z,1016.8
2017-10-28T01:11:39.845Z,1016.8
2017-10-28T01:12:41.453Z,1016.7
2017-10-28T01:13:43.056Z,1016.8
2017-10-28T01:14:44.661Z,1016.8
2017-10-28T01:15:46.271Z,1016.8
2017-10-28T01:16:47.872Z,1016.7
2017-10-28T01:17:49.479Z,1016.7
2017-10-28T01:18:51.086Z,1016.6
2017-10-28T01:19:52.693Z,1016.6
2017-10-28T01:20:54.296Z,1016.6
2017-10-28T01:21:55.907Z,1016.6
2017-10-28T01:22:57.511Z,1016.5
2017-10-28T01:23:59.124Z,1016.5
2017-10-28T01:25:00.728Z,1016.5
2017-10-28T01:26:02.341Z,1016.4
2017-10-28T01:27:03.946Z,1016.4
2017-10-28T01:28:05.557Z,1016.4
2017-10-28T01:29:07.160Z,1016.4
2017-10-28T01:30:08.772Z,1016.4
2017-10-28T01:31:10.384Z,1016.4
2017-10-28T01:32:11.995Z,1016.3
2017-10-28T01:33:13.605Z,1016.3
2017-10-28T01:34:15.214Z,1016.3
2017-10-28T01:35:16.815Z,1016.2
2017-10-28T01:36:18.432Z,1016.2
2017-10-28T01:37:20.040Z,1016.3
2017-10-28T01:38:21.641Z,1016.3
2017-10-28T01:39:23.254Z,1016.3
2017-10-28T01:40:24.860Z,1016.4
2017-10-28T01:41:26.466Z,1016.3
2017-10-28T01:42:28.075Z,1016.2
2017-10-28T01:43:29.685Z,1016.2
2017-10-28T01:44:31.288Z,1016.2
2017-10-28T01:45:32.893Z,1016.2
2017-10-28T01:46:34.502Z,1016.2
2017-10-28T01:47:36.122Z,1016.2
2017-10-28T01:48:37.726Z,1016.2
2017-10-28T01:49:39.331Z,1016.1
2017-10-28T01:50:40.942Z,1016.1
2017-10-28T01:51:42.551Z,1016.0
2017-10-28T01:52:44.156Z,1015.9
2017-10-28T01:53:45.758Z,1015.8
2017-10-28T01:54:47.370Z,1015.8
2017-10-28T01:55:48.970Z,1015.8
2017-10-28T01:56:50.580Z,1015.7
2017-10-28T01:57:52.183Z,1015.7
2017-10-28T01:58:53.796Z,1015.6
2017-10-28T01:59:55.399Z,1015.6
2017-10-28T02:00:57.013Z,1015.6
2017-10-28T02:01:58.620Z,1015.6
2017-10-28T02:03:00.228Z,1015.5
2017-10-28T02:04:01.832Z,1015.5
2017-10-28T02:05:03.442Z,1015.5
2017-10-28T02:06:05.045Z,1015.5
2017-10-28T02:07:06.659Z,1015.5
2017-10-28T02:08:08.270Z,1015.4
2017-10-28T02:09:09.878Z,1015.4
2017-10-28T02:10:11.484Z,1015.4
2017-10-28T02:11:13.086Z,1015.3
2017-10-28T02:12:14.698Z,1015.3
2017-10-28T02:13:16.300Z,1015.2
2017-10-28T02:14:17.910Z,1015.2
2017-10-28T02:15:19.513Z,1015.2
2017-10-28T02:16:21.124Z,1015.2
2017-10-28T02:17:22.731Z,1015.2
2017-10-28T02:18:24.335Z,1015.1
2017-10-28T02:19:25.939Z,1015.1
2017-10-28T02:20:27.549Z,1015.2
2017-10-28T02:21:29.153Z,1015.2
2017-10-28T02:22:30.765Z,1015.2
2017-10-28T02:23:32.373Z,1015.2
2017-10-28T02:24:33.982Z,1015.1
2017-10-28T02:25:35.589Z,1015.1
2017-10-28T02:26:37.195Z,1015.1
2017-10-28T02:27:38.798Z,1015.0
2017-10-28T02:28:40.412Z,1015.0
2017-10-28T02:29:42.013Z,1015.0
2017-10-28T02:30:43.625Z,1015.0
2017-10-28T02:31:45.226Z,1015.0
2017-10-28T02:32:46.837Z,1015.0
2017-10-28T02:33:48.439Z,1015.1
2017-10-28T02:34:50.045Z,1015.1
2017-10-28T02:35:51.656Z,1015.0
2017-10-28T02:36:53.268Z,1015.0
2017-10-28T02:37:54.870Z,1015.0
2017-10-28T02:38:56.475Z,1015.0
2017-10-28T02:39:58.091Z,1015.0
2017-10-28T02:40:59.686Z,1015.1
2017-10-28T02:42:01.288Z,1015.0
2017-10-28T02:43:02.893Z,1015.0
2017-10-28T02:44:04.504Z,1014.9
2017-10-28T02:45:06.111Z,1014.9
2017-10-28T02:46:07.720Z,1015.0
2017-10-28T02:47:09.329Z,1014.9
2017-10-28T02:48:10.933Z,1014.9
2017-10-28T02:49:12.537Z,1014.9
2017-10-28T02:50:14.150Z,1014.9
2017-10-28T02:51:15.761Z,1014.9
2017-10-28T02:52:17.373Z,1014.9
2017-10-28T02:53:18.975Z,1014.8
2017-10-28T02:54:20.600Z,1014.8
2017-10-28T02:55:22.186Z,1014.8
2017-10-28T02:56:23.801Z,1014.8
2017-10-28T02:57:25.403Z,1014.8
2017-10-28T02:58:27.015Z,1014.7
2017-10-28T02:59:28.619Z,1014.7
2017-10-28T03:00:30.222Z,1014.7
2017-10-28T03:01:31.833Z,1014.8
2017-10-28T03:02:33.432Z,1014.7
2017-10-28T03:03:35.042Z,1014.7
2017-10-28T03:04:36.648Z,1014.7
2017-10-28T03:05:38.256Z,1014.7
2017-10-28T03:06:39.861Z,1014.7
2017-10-28T03:07:41.472Z,1014.7
2017-10-28T03:08:43.072Z,1014.6
2017-10-28T03:09:44.679Z,1014.6
2017-10-28T03:10:46.288Z,1014.6
2017-10-28T03:11:47.895Z,1014.5
2017-10-28T03:12:49.499Z,1014.5
2017-10-28T03:13:51.105Z,1014.5
2017-10-28T03:14:52.716Z,1014.4
2017-10-28T03:15:54.324Z,1014.3
2017-10-28T03:16:55.934Z,1014.3
2017-10-28T03:17:57.532Z,1014.2
2017-10-28T03:18:59.138Z,1014.2
2017-10-28T03:20:00.746Z,1014.2
2017-10-28T03:21:02.356Z,1014.2
2017-10-28T03:22:03.958Z,1014.2
2017-10-28T03:23:05.572Z,1014.2
2017-10-28T03:24:07.170Z,1014.3
2017-10-28T03:25:08.779Z,1014.2
2017-10-28T03:26:10.388Z,1014.3
2017-10-28T03:27:11.991Z,1014.3
2017-10-28T03:28:13.597Z,1014.2
2017-10-28T03:29:15.205Z,1014.2
2017-10-28T03:30:16.818Z,1014.2
2017-10-28T03:31:18.416Z,1014.2
2017-10-28T03:32:20.027Z,1014.1
2017-10-28T03:33:21.633Z,1014.1
2017-10-28T03:34:23.239Z,1014.1
2017-10-28T03:35:24.847Z,1014.0
2017-10-28T03:36:26.472Z,1014.1
2017-10-28T03:37:28.064Z,1014.0
2017-10-28T03:38:29.664Z,1014.0
2017-10-28T03:39:31.274Z,1014.0
2017-10-28T03:40:32.882Z,1014.0
2017-10-28T03:41:34.485Z,1013.9
2017-10-28T03:42:36.089Z,1013.9
2017-10-28T03:43:37.702Z,1013.9
2017-10-28T03:44:39.308Z,1013.8
2017-10-28T03:45:40.914Z,1013.8
2017-10-28T03:46:42.518Z,1013.8
2017-10-28T03:47:44.130Z,1013.7
2017-10-28T03:48:45.737Z,1013.7
2017-10-28T03:49:47.344Z,1013.6
2017-10-28T03:50:48.953Z,1013.6
2017-10-28T03:51:50.558Z,1013.6
2017-10-28T03:52:52.167Z,1013.6
2017-10-28T03:53:53.771Z,1013.6
2017-10-28T03:54:55.379Z,1013.6
2017-10-28T03:55:56.981Z,1013.6
2017-10-28T03:56:58.593Z,1013.6
2017-10-28T03:58:00.193Z,1013.6
2017-10-28T03:59:01.816Z,1013.5
2017-10-28T04:00:03.419Z,1013.6
2017-10-28T04:01:05.027Z,1013.6
2017-10-28T04:02:06.626Z,1013.6
2017-10-28T04:03:08.238Z,1013.6
2017-10-28T04:04:09.842Z,1013.6
2017-10-28T04:05:11.443Z,1013.5
2017-10-28T04:06:13.048Z,1013.5
2017-10-28T04:07:14.653Z,1013.5
2017-10-28T04:08:16.254Z,1013.5
2017-10-28T04:09:17.864Z,1013.6
2017-10-28T04:10:19.469Z,1013.7
2017-10-28T04:11:21.073Z,1013.7
2017-10-28T04:12:22.681Z,1013.7
2017-10-28T04:13:24.282Z,1013.6
2017-10-28T04:14:25.888Z,1013.6
2017-10-28T04:15:27.491Z,1013.7
2017-10-28T04:16:29.100Z,1013.7
2017-10-28T04:17:30.715Z,1013.8
2017-10-28T04:18:32.316Z,1013.7
2017-10-28T04:19:33.914Z,1013.8
2017-10-28T04:20:35.519Z,1013.7
2017-10-28T04:21:37.127Z,1013.7
2017-10-28T04:22:38.735Z,1013.7
2017-10-28T04:23:40.336Z,1013.7
2017-10-28T04:24:41.943Z,1013.7
2017-10-28T04:25:43.549Z,1013.7
2017-10-28T04:26:45.156Z,1013.7
2017-10-28T04:27:46.760Z,1013.8
2017-10-28T04:28:48.371Z,1013.7
2017-10-28T04:29:49.978Z,1013.6
2017-10-28T04:30:51.580Z,1013.5
2017-10-28T04:31:53.184Z,1013.6
2017-10-28T04:32:54.796Z,1013.5
2017-10-28T04:33:56.405Z,1013.5
2017-10-28T04:34:58.002Z,1013.5
2017-10-28T04:35:59.606Z,1013.5
2017-10-28T04:37:01.213Z,1013.6
2017-10-28T04:38:02.823Z,1013.6
2017-10-28T04:39:04.423Z,1013.6
2017-10-28T04:40:06.030Z,1013.6
2017-10-28T04:41:07.636Z,1013.4
2017-10-28T04:42:09.241Z,1013.4
2017-10-28T04:43:10.844Z,1013.4
2017-10-28T04:44:12.446Z,1013.4
2017-10-28T04:45:14.055Z,1013.4
2017-10-28T04:46:15.660Z,1013.4
2017-10-28T04:47:17.272Z,1013.4
2017-10-28T04:48:18.873Z,1013.3
2017-10-28T04:49:20.481Z,1013.2
2017-10-28T04:50:22.081Z,1013.2
2017-10-28T04:51:23.690Z,1013.2
2017-10-28T04:52:25.293Z,1013.2
2017-10-28T04:53:26.904Z,1013.2
2017-10-28T04:54:28.508Z,1013.1
2017-10-28T04:55:30.112Z,1013.0
2017-10-28T04:56:31.715Z,1013.0
2017-10-28T04:57:33.325Z,1013.0
2017-10-28T04:58:34.929Z,1013.0
2017-10-28T04:59:36.538Z,1012.9
2017-10-28T05:00:38.139Z,1012.8
2017-10-28T05:01:39.748Z,1012.8
2017-10-28T05:02:41.354Z,1012.8
2017-10-28T05:03:42.957Z,1012.8
2017-10-28T05:04:44.563Z,1012.6
2017-10-28T05:05:46.163Z,1012.6
2017-10-28T05:06:47.776Z,1012.6
2017-10-28T05:07:49.378Z,1012.5
2017-10-28T05:08:50.990Z,1012.5
2017-10-28T05:09:52.589Z,1012.6
2017-10-28T05:10:54.197Z,1012.6
2017-10-28T05:11:55.798Z,1012.6
2017-10-28T05:12:57.414Z,1012.6
2017-10-28T05:13:59.009Z,1012.5
2017-10-28T05:15:00.619Z,1012.6
2017-10-28T05:16:02.223Z,1012.5
2017-10-28T05:17:03.829Z,1012.5
2017-10-28T05:18:05.427Z,1012.5
2017-10-28T05:19:07.035Z,1012.5
2017-10-28T05:20:08.636Z,1012.4
2017-10-28T05:21:10.240Z,1012.4
2017-10-28T05:22:11.857Z,1012.4
2017-10-28T05:23:13.461Z,1012.4
2017-10-28T05:24:15.060Z,1012.3
2017-10-28T05:25:16.663Z,1012.3
2017-10-28T05:26:18.274Z,1012.3
2017-10-28T05:27:19.875Z,1012.3
2017-10-28T05:28:21.481Z,1012.3
2017-10-28T05:29:23.082Z,1012.3
2017-10-28T05:30:24.692Z,1012.3
2017-10-28T05:31:26.303Z,1012.4
2017-10-28T05:32:27.898Z,1012.3
2017-10-28T05:33:29.501Z,1012.2
2017-10-28T05:34:31.109Z,1012.3
2017-10-28T05:35:32.713Z,1012.4
2017-10-28T05:36:34.323Z,1012.4
2017-10-28T05:37:35.930Z,1012.4
2017-10-28T05:38:37.531Z,1012.3
2017-10-28T05:39:39.134Z,1012.3
2017-10-28T05:40:40.744Z,1012.2
2017-10-28T05:41:43.434Z,1012.2
2017-10-28T05:42:45.010Z,1012.3
2017-10-28T05:43:46.620Z,1012.2
2017-10-28T05:44:48.239Z,1012.3
2017-10-28T05:45:49.828Z,1012.2
2017-10-28T05:46:51.435Z,1012.1
2017-10-28T05:47:53.039Z,1012.0
2017-10-28T05:48:54.641Z,1012.0
2017-10-28T05:49:56.245Z,1012.0
2017-10-28T05:50:57.860Z,1012.0
2017-10-28T05:51:59.467Z,1011.9
2017-10-28T05:53:01.070Z,1011.9
2017-10-28T05:54:02.674Z,1011.8
2017-10-28T05:55:04.281Z,1011.8
2017-10-28T05:56:05.886Z,1011.8
2017-10-28T05:57:07.487Z,1011.9
2017-10-28T05:58:09.092Z,1011.8
2017-10-28T05:59:10.704Z,1011.8
2017-10-28T06:00:12.305Z,1011.8
2017-10-28T06:01:13.914Z,1011.9
2017-10-28T06:02:15.517Z,1011.8
2017-10-28T06:03:17.128Z,1011.8
2017-10-28T06:04:18.738Z,1011.7
2017-10-28T06:05:20.344Z,1011.7
2017-10-28T06:06:21.953Z,1011.7
2017-10-28T06:07:23.563Z,1011.6
2017-10-28T06:08:25.167Z,1011.6
2017-10-28T06:09:26.779Z,1011.6
2017-10-28T06:10:28.377Z,1011.5
2017-10-28T06:11:29.988Z,1011.5
2017-10-28T06:12:31.590Z,1011.6
2017-10-28T06:13:33.203Z,1011.5
2017-10-28T06:14:34.804Z,1011.6
2017-10-28T06:15:36.418Z,1011.5
2017-10-28T06:16:38.022Z,1011.5
2017-10-28T06:17:39.624Z,1011.6
2017-10-28T06:18:41.235Z,1011.6
2017-10-28T06:19:43.756Z,1011.6
2017-10-28T06:20:45.372Z,1011.6
2017-10-28T06:21:46.972Z,1011.6
2017-10-28T06:22:48.581Z,1011.7
2017-10-28T06:23:50.184Z,1011.6
2017-10-28T06:24:51.798Z,1011.6
2017-10-28T06:25:53.400Z,1011.6
2017-10-28T06:26:55.018Z,1011.6
2017-10-28T06:27:56.622Z,1011.6
2017-10-28T06:28:58.233Z,1011.7
2017-10-28T06:29:59.837Z,1011.7
2017-10-28T06:31:01.449Z,1011.6
2017-10-28T06:32:03.056Z,1011.5
2017-10-28T06:33:04.675Z,1011.6
2017-10-28T06:34:13.683Z,1011.6
2017-10-28T06:35:20.696Z,1011.7
2017-10-28T06:36:25.934Z,1011.7
2017-10-28T06:37:27.538Z,1011.8
2017-10-28T06:38:29.438Z,1011.7
2017-10-28T06:39:31.292Z,1011.7
2017-10-28T06:40:32.908Z,1011.6
2017-10-28T06:41:34.522Z,1011.7
2017-10-28T06:42:36.130Z,1011.8
2017-10-28T06:43:37.737Z,1011.7
2017-10-28T06:44:39.351Z,1011.7
2017-10-28T06:45:40.960Z,1011.8
2017-10-28T06:46:44.595Z,1011.8
2017-10-28T06:47:45.342Z,1011.8
2017-10-28T06:48:46.955Z,1011.8
2017-10-28T06:49:48.568Z,1011.9
2017-10-28T06:50:50.175Z,1011.9
2017-10-28T06:51:51.782Z,1011.9
2017-10-28T06:52:53.416Z,1011.9
2017-10-28T06:53:55.056Z,1011.9
2017-10-28T06:54:56.705Z,1011.9
2017-10-28T06:55:58.319Z,1011.8
2017-10-28T06:57:00.023Z,1011.7
2017-10-28T06:58:01.947Z,1011.7
2017-10-28T06:59:03.606Z,1011.8
2017-10-28T07:00:05.275Z,1011.8
2017-10-28T07:01:06.923Z,1011.8
2017-10-28T07:02:08.743Z,1011.7
2017-10-28T07:03:10.901Z,1011.8
2017-10-28T07:04:12.704Z,1011.7
2017-10-28T07:05:14.475Z,1011.7
2017-10-28T07:06:16.456Z,1011.6
2017-10-28T07:07:18.362Z,1011.6
2017-10-28T07:08:20.398Z,1011.5
2017-10-28T07:09:22.130Z,1011.5
2017-10-28T07:10:24.149Z,1011.5
2017-10-28T07:11:26.026Z,1011.6
2017-10-28T07:12:28.001Z,1011.6
2017-10-28T07:13:30.113Z,1011.6
2017-10-28T07:14:32.175Z,1011.7
2017-10-28T07:15:35.032Z,1011.7
2017-10-28T07:16:37.041Z,1011.8
2017-10-28T07:17:39.824Z,1011.8
2017-10-28T07:18:42.605Z,1011.8
2017-10-28T07:19:45.894Z,1011.7
2017-10-28T07:20:47.824Z,1011.7
2017-10-28T07:21:49.608Z,1011.7
2017-10-28T07:22:51.507Z,1011.7
2017-10-28T07:23:53.694Z,1011.7
2017-10-28T07:24:55.767Z,1011.6
2017-10-28T07:25:57.611Z,1011.7
2017-10-28T07:26:59.433Z,1011.6
2017-10-28T07:28:01.281Z,1011.6
2017-10-28T07:29:03.103Z,1011.6
2017-10-28T07:30:05.529Z,1011.6
2017-10-28T07:31:07.351Z,1011.6
2017-10-28T07:32:09.864Z,1011.7
2017-10-28T07:33:11.702Z,1011.7
2017-10-28T07:34:13.542Z,1011.7
2017-10-28T07:35:15.424Z,1011.8
2017-10-28T07:36:17.276Z,1011.8
2017-10-28T07:37:19.102Z,1011.7
2017-10-28T07:38:21.108Z,1011.6
2017-10-28T07:39:22.992Z,1011.6
2017-10-28T07:40:24.818Z,1011.5
2017-10-28T07:41:26.673Z,1011.5
2017-10-28T07:42:28.612Z,1011.5
2017-10-28T07:43:30.402Z,1011.4
2017-10-28T07:44:32.304Z,1011.3
2017-10-28T07:45:34.108Z,1011.3
2017-10-28T07:46:35.875Z,1011.2
2017-10-28T07:47:37.856Z,1011.1
2017-10-28T07:48:39.839Z,1011.0
2017-10-28T07:49:41.651Z,1010.9
2017-10-28T07:50:43.502Z,1010.9
2017-10-28T07:51:45.316Z,1010.8
2017-10-28T07:52:47.380Z,1010.8
2017-10-28T07:53:49.640Z,1011.0
2017-10-28T07:54:51.586Z,1011.0
2017-10-28T07:55:53.366Z,1011.1
2017-10-28T07:56:55.311Z,1011.2
2017-10-28T07:57:57.112Z,1011.2
2017-10-28T07:58:59.366Z,1011.2
2017-10-28T08:00:01.273Z,1011.2
2017-10-28T08:01:03.067Z,1011.2
2017-10-28T08:02:04.904Z,1011.1
2017-10-28T08:03:06.811Z,1011.2
2017-10-28T08:04:08.641Z,1011.2
2017-10-28T08:05:10.563Z,1011.3
2017-10-28T08:06:12.537Z,1011.4
2017-10-28T08:07:14.517Z,1011.4
2017-10-28T08:08:16.376Z,1011.4
2017-10-28T08:09:18.178Z,1011.5
2017-10-28T08:10:20.027Z,1011.5
2017-10-28T08:11:21.858Z,1011.5
2017-10-28T08:12:23.975Z,1011.5
2017-10-28T08:13:25.934Z,1011.6
2017-10-28T08:14:27.676Z,1011.6
2017-10-28T08:15:29.469Z,1011.4
2017-10-28T08:16:31.404Z,1011.5
2017-10-28T08:17:33.195Z,1011.5
2017-10-28T08:18:35.177Z,1011.5
2017-10-28T08:19:37.067Z,1011.5
2017-10-28T08:20:39.133Z,1011.6
2017-10-28T08:21:40.748Z,1011.5
2017-10-28T08:22:42.583Z,1011.5
2017-10-28T08:23:44.493Z,1011.5
2017-10-28T08:24:46.325Z,1011.4
2017-10-28T08:25:48.124Z,1011.5
2017-10-28T08:26:50.092Z,1011.4
2017-10-28T08:27:51.932Z,1011.4
2017-10-28T08:28:53.791Z,1011.4
2017-10-28T08:29:55.609Z,1011.4
2017-10-28T08:30:57.427Z,1011.4
2017-10-28T08:31:59.218Z,1011.4
2017-10-28T08:33:01.101Z,1011.5
2017-10-28T08:34:02.951Z,1011.5
2017-10-28T08:35:04.561Z,1011.4
2017-10-28T08:36:06.178Z,1011.4
2017-10-28T08:37:07.788Z,1011.3
2017-10-28T08:38:09.399Z,1011.3
2017-10-28T08:39:11.014Z,1011.2
2017-10-28T08:40:12.622Z,1011.2
2017-10-28T08:41:14.240Z,1011.2
2017-10-28T08:42:15.851Z,1011.1
2017-10-28T08:43:17.469Z,1011.1
2017-10-28T08:44:19.079Z,1011.0
2017-10-28T08:45:20.697Z,1011.0
2017-10-28T08:46:22.308Z,1011.1
2017-10-28T08:47:23.922Z,1011.0
2017-10-28T08:48:25.539Z,1011.0
2017-10-28T08:49:27.149Z,1011.0
2017-10-28T08:50:28.766Z,1011.0
2017-10-28T08:51:30.381Z,1011.0
2017-10-28T08:52:31.993Z,1011.0
2017-10-28T08:53:33.602Z,1011.0
2017-10-28T08:54:35.216Z,1010.9
2017-10-28T08:55:36.823Z,1011.0
2017-10-28T08:56:38.441Z,1010.9
2017-10-28T08:57:40.053Z,1010.9
2017-10-28T08:58:41.669Z,1011.0
2017-10-28T08:59:43.281Z,1011.1
2017-10-28T09:00:44.903Z,1011.0
2017-10-28T09:01:46.509Z,1010.9
2017-10-28T09:02:48.116Z,1010.8
2017-10-28T09:03:49.731Z,1010.9
2017-10-28T09:04:51.340Z,1010.8
2017-10-28T09:05:52.959Z,1010.8
2017-10-28T09:06:54.574Z,1010.7
2017-10-28T09:07:56.188Z,1010.8
2017-10-28T09:08:57.798Z,1010.8
2017-10-28T09:09:59.414Z,1010.8
2017-10-28T09:11:01.021Z,1010.8
2017-10-28T09:12:02.641Z,1010.9
2017-10-28T09:13:04.251Z,1010.9
2017-10-28T09:14:05.870Z,1010.7
2017-10-28T09:15:07.479Z,1010.8
2017-10-28T09:16:09.094Z,1010.8
2017-10-28T09:17:10.703Z,1010.8
2017-10-28T09:18:12.319Z,1010.7
2017-10-28T09:19:13.935Z,1010.6
2017-10-28T09:20:15.545Z,1010.6
2017-10-28T09:21:17.163Z,1010.6
2017-10-28T09:22:18.780Z,1010.6
2017-10-28T09:23:20.388Z,1010.6
2017-10-28T09:24:21.999Z,1010.7
2017-10-28T09:25:23.612Z,1010.6
2017-10-28T09:26:25.228Z,1010.6
2017-10-28T09:27:26.838Z,1010.5
2017-10-28T09:28:28.457Z,1010.4
2017-10-28T09:29:30.068Z,1010.4
2017-10-28T09:30:31.682Z,1010.4
2017-10-28T09:31:33.291Z,1010.3
2017-10-28T09:32:34.910Z,1010.3
2017-10-28T09:33:36.526Z,1010.3
2017-10-28T09:34:38.139Z,1010.4
2017-10-28T09:35:39.750Z,1010.4
2017-10-28T09:36:41.359Z,1010.4
2017-10-28T09:37:42.976Z,1010.5
2017-10-28T09:38:44.592Z,1010.4
2017-10-28T09:39:46.200Z,1010.3
2017-10-28T09:40:47.814Z,1010.3
2017-10-28T09:41:49.430Z,1010.3
2017-10-28T09:42:51.064Z,1010.3
2017-10-28T09:43:52.653Z,1010.3
2017-10-28T09:44:54.263Z,1010.3
2017-10-28T09:45:55.880Z,1010.2
2017-10-28T09:46:57.492Z,1010.3
2017-10-28T09:47:59.100Z,1010.3
2017-10-28T09:49:00.711Z,1010.2
2017-10-28T09:50:02.332Z,1010.2
2017-10-28T09:51:03.938Z,1010.2
2017-10-28T09:52:05.548Z,1010.2
2017-10-28T09:53:07.155Z,1010.2
2017-10-28T09:54:08.772Z,1010.1
2017-10-28T09:55:10.379Z,1010.2
2017-10-28T09:56:11.997Z,1010.2
2017-10-28T09:57:13.604Z,1010.2
2017-10-28T09:58:15.218Z,1010.2
2017-10-28T09:59:17.970Z,1010.2
2017-10-28T10:00:19.553Z,1010.2
2017-10-28T10:01:21.161Z,1010.2
2017-10-28T10:02:22.776Z,1010.1
2017-10-28T10:03:24.388Z,1010.2
2017-10-28T10:04:26.007Z,1010.2
2017-10-28T10:05:27.612Z,1010.4
2017-10-28T10:06:29.226Z,1010.3
2017-10-28T10:07:30.841Z,1010.4
2017-10-28T10:08:32.450Z,1010.4
2017-10-28T10:09:34.067Z,1010.3
2017-10-28T10:10:35.678Z,1010.3
2017-10-28T10:11:37.295Z,1010.3
2017-10-28T10:12:38.919Z,1010.4
2017-10-28T10:13:40.534Z,1010.4
2017-10-28T10:14:42.148Z,1010.4
2017-10-28T10:15:43.758Z,1010.4
2017-10-28T10:16:45.369Z,1010.4
2017-10-28T10:17:46.983Z,1010.3
2017-10-28T10:18:48.599Z,1010.3
2017-10-28T10:19:50.217Z,1010.4
2017-10-28T10:20:51.822Z,1010.3
2017-10-28T10:21:53.433Z,1010.3
2017-10-28T10:22:55.050Z,1010.3
2017-10-28T10:23:56.665Z,1010.4
2017-10-28T10:24:58.275Z,1010.3
2017-10-28T10:25:59.888Z,1010.2
2017-10-28T10:27:01.502Z,1010.3
2017-10-28T10:28:03.116Z,1010.2
2017-10-28T10:29:04.726Z,1010.3
2017-10-28T10:30:06.336Z,1010.1
2017-10-28T10:31:07.952Z,1010.1
2017-10-28T10:32:09.567Z,1010.1
2017-10-28T10:33:11.189Z,1010.1
2017-10-28T10:34:12.798Z,1010.1
2017-10-28T10:35:14.411Z,1010.1
2017-10-28T10:36:16.013Z,1010.1
2017-10-28T10:37:17.846Z,1010.1
2017-10-28T10:38:19.461Z,1010.1
2017-10-28T10:39:21.068Z,1010.0
2017-10-28T10:40:22.685Z,1010.0
2017-10-28T10:41:24.295Z,1010.0
2017-10-28T10:42:25.903Z,1010.0
2017-10-28T10:43:27.520Z,1009.9
2017-10-28T10:44:29.135Z,1009.8
2017-10-28T10:45:30.748Z,1009.8
2017-10-28T10:46:32.359Z,1009.8
2017-10-28T10:47:33.977Z,1009.8
2017-10-28T10:48:35.585Z,1009.7
2017-10-28T10:49:37.199Z,1009.7
2017-10-28T10:50:38.812Z,1009.6
2017-10-28T10:51:40.427Z,1009.6
2017-10-28T10:52:42.051Z,1009.6
2017-10-28T10:53:43.656Z,1009.6
2017-10-28T10:54:45.267Z,1009.5
2017-10-28T10:55:46.886Z,1009.4
2017-10-28T10:56:48.502Z,1009.5
2017-10-28T10:57:50.141Z,1009.3
2017-10-28T10:58:51.751Z,1009.4
2017-10-28T10:59:53.371Z,1009.3
2017-10-28T11:00:54.985Z,1009.3
2017-10-28T11:01:56.604Z,1009.2
2017-10-28T11:02:58.214Z,1009.2
2017-10-28T11:03:59.832Z,1009.3
2017-10-28T11:05:01.449Z,1009.3
2017-10-28T11:06:03.059Z,1009.3
2017-10-28T11:07:04.676Z,1009.3
2017-10-28T11:08:06.288Z,1009.3
2017-10-28T11:09:08.189Z,1009.2
2017-10-28T11:10:15.445Z,1009.2
2017-10-28T11:11:22.290Z,1009.2
2017-10-28T11:12:29.798Z,1009.2
2017-10-28T11:13:36.108Z,1009.2
2017-10-28T11:14:43.485Z,1009.2
2017-10-28T11:15:49.984Z,1009.3
2017-10-28T11:16:56.498Z,1009.2
2017-10-28T11:18:04.662Z,1009.2
2017-10-28T11:19:10.872Z,1009.2
2017-10-28T11:20:16.269Z,1009.2
2017-10-28T11:21:22.630Z,1009.2
2017-10-28T11:22:30.093Z,1009.2
2017-10-28T11:23:35.137Z,1009.3
2017-10-28T11:24:41.338Z,1009.3
2017-10-28T11:25:47.354Z,1009.2
2017-10-28T11:26:52.837Z,1009.2
2017-10-28T11:28:00.892Z,1009.2
2017-10-28T11:29:10.239Z,1009.2
2017-10-28T11:30:14.920Z,1009.2
2017-10-28T11:31:21.059Z,1009.2
2017-10-28T11:32:26.785Z,1009.2
2017-10-28T11:33:33.204Z,1009.2
2017-10-28T11:34:38.983Z,1009.1
2017-10-28T11:35:43.721Z,1009.1
2017-10-28T11:36:49.003Z,1009.0
2017-10-28T11:37:56.355Z,1009.0
2017-10-28T11:39:01.894Z,1008.9
2017-10-28T11:40:08.016Z,1008.9
2017-10-28T11:41:13.814Z,1008.9
2017-10-28T11:42:19.534Z,1008.8
2017-10-28T11:43:23.523Z,1008.8
2017-10-28T11:44:26.993Z,1008.8
2017-10-28T11:45:30.528Z,1008.7
2017-10-28T11:46:33.610Z,1008.9
2017-10-28T11:47:36.694Z,1008.8
2017-10-28T11:48:39.596Z,1008.9
2017-10-28T11:49:42.564Z,1008.9
2017-10-28T11:50:45.243Z,1008.8
2017-10-28T11:51:48.565Z,1008.7
2017-10-28T11:52:51.771Z,1008.7
2017-10-28T11:53:55.206Z,1008.6
2017-10-28T11:55:01.215Z,1008.6
2017-10-28T11:56:07.367Z,1008.6
2017-10-28T11:57:12.534Z,1008.6
2017-10-28T11:58:19.629Z,1008.5
2017-10-28T11:59:28.570Z,1008.5
2017-10-28T12:00:34.625Z,1008.4
2017-10-28T12:01:41.185Z,1008.3
2017-10-28T12:02:48.163Z,1008.3
2017-10-28T12:03:55.774Z,1008.3
2017-10-28T12:05:02.289Z,1008.3
2017-10-28T12:06:08.981Z,1008.3
2017-10-28T12:07:14.760Z,1008.3
2017-10-28T12:08:23.906Z,1008.4
2017-10-28T12:09:28.512Z,1008.3
2017-10-28T12:10:34.665Z,1008.3
2017-10-28T12:11:37.848Z,1008.3
2017-10-28T12:12:41.027Z,1008.3
2017-10-28T12:13:46.278Z,1008.3
2017-10-28T12:14:50.689Z,1008.3
2017-10-28T12:15:53.722Z,1008.3
2017-10-28T12:16:57.060Z,1008.4
2017-10-28T12:18:01.172Z,1008.4
2017-10-28T12:19:06.225Z,1008.4
2017-10-28T12:20:10.680Z,1008.4
2017-10-28T12:21:17.753Z,1008.3
2017-10-28T12:22:22.514Z,1008.3
2017-10-28T12:23:27.849Z,1008.3
2017-10-28T12:24:32.804Z,1008.2
2017-10-28T12:25:38.658Z,1008.2
2017-10-28T12:26:45.938Z,1008.2
2017-10-28T12:27:51.507Z,1008.2
2017-10-28T12:28:57.419Z,1008.2
2017-10-28T12:30:04.201Z,1008.2
2017-10-28T12:31:10.435Z,1008.1
2017-10-28T12:32:17.407Z,1008.1
2017-10-28T12:33:22.771Z,1008.0
2017-10-28T12:34:28.060Z,1007.9
2017-10-28T12:35:33.675Z,1007.9
2017-10-28T12:36:38.961Z,1007.9
2017-10-28T12:37:43.578Z,1007.9
2017-10-28T12:38:48.966Z,1007.8
2017-10-28T12:39:55.076Z,1007.7
2017-10-28T12:41:00.870Z,1007.6
2017-10-28T12:42:06.338Z,1007.6
2017-10-28T12:43:12.722Z,1007.5
2017-10-28T12:44:18.682Z,1007.5
2017-10-28T12:45:25.448Z,1007.5
2017-10-28T12:46:30.904Z,1007.4
2017-10-28T12:47:34.322Z,1007.4
2017-10-28T12:48:37.476Z,1007.4
2017-10-28T12:49:40.739Z,1007.5
2017-10-28T12:50:44.019Z,1007.5
2017-10-28T12:51:47.340Z,1007.5
2017-10-28T12:52:52.733Z,1007.6
2017-10-28T12:53:58.039Z,1007.5
2017-10-28T12:55:06.274Z,1007.5
2017-10-28T12:56:11.870Z,1007.5